CST,Max TemperatureF,Mean TemperatureF,Min TemperatureF,Max Dew PointF,MeanDew PointF,Min DewpointF,Max Humidity, Mean Humidity, Min Humidity, Max Sea Level PressureIn, Mean Sea Level PressureIn, Min Sea Level PressureIn, Max VisibilityMiles, Mean VisibilityMiles, Min VisibilityMiles, Max Wind SpeedMPH, Mean Wind SpeedMPH, Max Gust SpeedMPH,PrecipitationIn, CloudCover, Events, WindDirDegrees
2012-11-1,68,51,33,41,35,28,82,58,34,30.02,29.95,29.87,10,10,10,13,6,17,0.00,0,,237
2012-11-2,61,50,38,39,34,31,83,57,33,30.04,29.97,29.91,10,10,9,16,8,23,0.00,0,,77
2012-11-3,57,45,33,38,35,31,92,67,51,30.19,30.04,29.90,10,10,5,17,7,23,0.00,1,,43
2012-11-4,51,40,29,36,32,27,100,76,38,30.25,30.19,30.11,10,6,0,30,3,38,0.00,3,Fog,88
2012-11-5,45,43,41,40,39,33,96,88,65,30.10,30.03,29.97,10,7,2,29,9,38,0.34,8,Rain,125
2012-11-6,47,41,34,41,38,34,100,89,63,30.06,30.01,29.94,10,5,0,14,4,31,T,7,Fog,215
2012-11-7,49,41,32,35,32,29,82,68,59,30.17,30.08,29.97,10,10,10,20,9,25,0.00,5,,345
2012-11-8,59,44,28,38,34,28,88,65,42,30.19,30.12,30.03,10,10,10,30,11,37,0.00,0,,165
2012-11-9,73,61,48,55,46,38,72,63,51,30.03,29.96,29.88,10,10,10,21,16,31,0.00,2,,178
2012-11-10,78,67,56,52,48,44,68,57,31,29.96,29.92,29.86,10,10,10,31,19,40,0.00,0,,177
2012-11-11,66,49,32,55,46,27,96,86,65,30.14,29.92,29.77,10,6,0,32,16,47,0.65,7,Fog-Rain,264
2012-11-12,44,34,24,27,21,19,86,64,38,30.45,30.34,30.19,10,10,10,23,10,30,0.00,1,,266
2012-11-13,51,36,21,25,21,18,85,57,29,30.52,30.46,30.41,10,10,10,29,5,32,0.00,0,,165
2012-11-14,52,42,31,26,23,19,79,53,29,30.47,30.39,30.32,10,10,10,30,8,,0.00,0,,130
2012-11-15,56,43,29,33,26,20,73,58,34,30.38,30.34,30.31,10,10,10,14,6,36,0.00,1,,199
2012-11-16,60,45,30,33,29,25,82,57,33,30.44,30.41,30.37,10,10,10,29,4,31,0.00,0,,119
2012-11-17,61,45,29,30,27,24,79,51,27,30.47,30.40,30.36,10,10,10,13,7,17,0.00,0,,133
2012-11-18,64,49,34,33,28,25,70,47,24,30.36,30.30,30.24,10,10,10,14,9,17,0.00,0,,159
2012-11-19,56,51,45,47,42,34,90,73,54,30.25,30.18,30.11,10,10,9,16,10,20,T,5,Rain,188
2012-11-20,61,50,38,45,42,37,93,79,52,30.21,30.14,30.09,10,8,2,15,7,24,0.00,0,,270
2012-11-21,65,49,33,47,38,32,100,84,33,30.27,30.21,30.10,10,4,0,15,6,20,0.00,0,Fog,199
2012-11-22,68,58,48,52,45,37,88,68,42,30.14,30.02,29.92,10,9,2,23,14,30,0.27,4,Rain-Thunderstorm,200
2012-11-23,50,39,27,36,24,16,82,60,43,30.38,30.30,30.17,10,10,10,22,12,29,0.00,1,,302
2012-11-24,41,31,20,19,17,14,78,57,39,30.37,30.23,30.01,10,10,10,18,8,,0.00,0,,233
2012-11-25,58,46,33,29,25,19,65,49,32,30.01,29.95,29.89,10,10,10,18,9,23,0.00,0,,247
2012-11-26,46,36,25,29,25,18,75,64,40,30.40,30.19,30.01,10,10,10,22,13,29,0.00,3,,30
2012-11-27,40,29,17,19,16,13,81,65,39,30.48,30.38,30.33,10,10,10,9,4,12,0.00,0,,287
2012-11-28,50,36,21,27,23,16,78,60,41,30.45,30.36,30.27,10,10,10,12,6,25,0.00,0,,199
2012-11-29,61,49,36,35,31,28,79,55,36,30.25,30.15,30.07,10,10,10,20,13,26,0.00,0,,177
2012-11-30,65,54,43,46,39,31,80,60,48,30.12,30.08,30.04,10,10,10,17,10,,0.00,0,,195